sensor_id;sensor_type;location;lat;lon;timestamp;pressure;altitude;pressure_sealevel;temperature;humidity
43119;BME280;28729;49.838;8.650;2023-05-11T00:01:46;99554.47;;;11.31;100.00
43119;BME280;28729;49.838;8.650;2023-05-11T00:05:48;99553.63;;;11.30;100.00
43119;BME280;28729;49.838;8.650;2023-05-11T00:09:49;99554.69;;;11.29;100.00
43119;BME280;28729;49.838;8.650;2023-05-11T00:13:51;99547.00;;;11.31;100.00
43119;BME280;28729;49.838;8.650;2023-05-11T00:17:53;99551.69;;;11.31;100.00
43119;BME280;28729;49.838;8.650;2023-05-11T00:21:55;99556.38;;;11.30;100.00
43119;BME280;28729;49.838;8.650;2023-05-11T00:25:56;99553.03;;;11.28;100.00
43119;BME280;28729;49.838;8.650;2023-05-11T00:29:58;99561.56;;;11.27;100.00
43119;BME280;28729;49.838;8.650;2023-05-11T00:34:00;99551.06;;;11.24;100.00
43119;BME280;28729;49.838;8.650;2023-05-11T00:38:02;99549.13;;;11.24;100.00
43119;BME280;28729;49.838;8.650;2023-05-11T00:42:03;99549.41;;;11.23;100.00
43119;BME280;28729;49.838;8.650;2023-05-11T00:46:07;99544.41;;;11.20;100.00
43119;BME280;28729;49.838;8.650;2023-05-11T00:50:09;99543.00;;;11.17;100.00
43119;BME280;28729;49.838;8.650;2023-05-11T00:54:11;99542.41;;;11.15;100.00
43119;BME280;28729;49.838;8.650;2023-05-11T00:58:16;99542.38;;;11.10;100.00
43119;BME280;28729;49.838;8.650;2023-05-11T01:02:18;99539.03;;;11.08;100.00
43119;BME280;28729;49.838;8.650;2023-05-11T01:06:30;99545.09;;;11.05;100.00
43119;BME280;28729;49.838;8.650;2023-05-11T01:10:57;99552.78;;;11.03;100.00
43119;BME280;28729;49.838;8.650;2023-05-11T01:15:06;99545.53;;;10.97;100.00
43119;BME280;28729;49.838;8.650;2023-05-11T01:19:40;99536.69;;;10.94;100.00
43119;BME280;28729;49.838;8.650;2023-05-11T01:33:08;99533.53;;;10.81;100.00
43119;BME280;28729;49.838;8.650;2023-05-11T01:37:19;99540.38;;;10.78;100.00
43119;BME280;28729;49.838;8.650;2023-05-11T01:41:23;99549.16;;;10.75;100.00
43119;BME280;28729;49.838;8.650;2023-05-11T01:45:25;99536.41;;;10.69;100.00
43119;BME280;28729;49.838;8.650;2023-05-11T01:49:32;99538.59;;;10.67;100.00
43119;BME280;28729;49.838;8.650;2023-05-11T01:53:36;99542.44;;;10.66;100.00
43119;BME280;28729;49.838;8.650;2023-05-11T01:57:40;99544.59;;;10.64;100.00
43119;BME280;28729;49.838;8.650;2023-05-11T02:01:41;99543.78;;;10.63;100.00
43119;BME280;28729;49.838;8.650;2023-05-11T02:05:44;99544.88;;;10.62;100.00
43119;BME280;28729;49.838;8.650;2023-05-11T02:09:50;99547.88;;;10.61;100.00
43119;BME280;28729;49.838;8.650;2023-05-11T02:13:54;99547.06;;;10.60;100.00
43119;BME280;28729;49.838;8.650;2023-05-11T02:17:57;99543.47;;;10.60;100.00
43119;BME280;28729;49.838;8.650;2023-05-11T02:22:01;99557.47;;;10.58;100.00
43119;BME280;28729;49.838;8.650;2023-05-11T02:26:04;99548.66;;;10.56;100.00
43119;BME280;28729;49.838;8.650;2023-05-11T02:30:07;99546.16;;;10.55;100.00
43119;BME280;28729;49.838;8.650;2023-05-11T02:34:26;99540.06;;;10.53;100.00
43119;BME280;28729;49.838;8.650;2023-05-11T02:38:32;99538.91;;;10.48;100.00
43119;BME280;28729;49.838;8.650;2023-05-11T02:42:38;99531.16;;;10.45;100.00
43119;BME280;28729;49.838;8.650;2023-05-11T02:46:43;99535.00;;;10.44;100.00
43119;BME280;28729;49.838;8.650;2023-05-11T02:50:49;99532.78;;;10.41;100.00
43119;BME280;28729;49.838;8.650;2023-05-11T02:54:53;99539.09;;;10.42;100.00
43119;BME280;28729;49.838;8.650;2023-05-11T02:58:57;99543.19;;;10.39;100.00
43119;BME280;28729;49.838;8.650;2023-05-11T03:03:00;99537.69;;;10.39;100.00
43119;BME280;28729;49.838;8.650;2023-05-11T03:07:02;99539.03;;;10.37;100.00
43119;BME280;28729;49.838;8.650;2023-05-11T03:11:05;99536.53;;;10.35;100.00
43119;BME280;28729;49.838;8.650;2023-05-11T03:15:07;99541.47;;;10.33;100.00
43119;BME280;28729;49.838;8.650;2023-05-11T03:19:15;99542.56;;;10.32;100.00
43119;BME280;28729;49.838;8.650;2023-05-11T03:23:18;99545.31;;;10.32;100.00
43119;BME280;28729;49.838;8.650;2023-05-11T03:27:20;99548.56;;;10.29;100.00
43119;BME280;28729;49.838;8.650;2023-05-11T03:31:23;99540.78;;;10.26;100.00
43119;BME280;28729;49.838;8.650;2023-05-11T03:35:26;99541.66;;;10.26;100.00
43119;BME280;28729;49.838;8.650;2023-05-11T03:39:31;99544.41;;;10.26;100.00
43119;BME280;28729;49.838;8.650;2023-05-11T03:43:34;99552.06;;;10.24;100.00
43119;BME280;28729;49.838;8.650;2023-05-11T03:47:40;99548.47;;;10.24;100.00
43119;BME280;28729;49.838;8.650;2023-05-11T03:51:44;99541.88;;;10.25;100.00
43119;BME280;28729;49.838;8.650;2023-05-11T03:55:47;99536.16;;;10.26;100.00
43119;BME280;28729;49.838;8.650;2023-05-11T03:59:50;99540.78;;;10.26;100.00
43119;BME280;28729;49.838;8.650;2023-05-11T04:03:52;99544.16;;;10.28;100.00
43119;BME280;28729;49.838;8.650;2023-05-11T04:07:56;99539.47;;;10.29;100.00
43119;BME280;28729;49.838;8.650;2023-05-11T04:11:58;99527.63;;;10.28;100.00
43119;BME280;28729;49.838;8.650;2023-05-11T04:16:01;99542.56;;;10.32;100.00
43119;BME280;28729;49.838;8.650;2023-05-11T04:20:04;99542.63;;;10.37;100.00
43119;BME280;28729;49.838;8.650;2023-05-11T04:24:06;99531.09;;;10.40;100.00
43119;BME280;28729;49.838;8.650;2023-05-11T04:28:08;99541.94;;;10.47;100.00
43119;BME280;28729;49.838;8.650;2023-05-11T04:32:10;99543.31;;;10.49;100.00
43119;BME280;28729;49.838;8.650;2023-05-11T04:36:11;99550.56;;;10.56;100.00
43119;BME280;28729;49.838;8.650;2023-05-11T04:40:13;99554.56;;;10.65;100.00
43119;BME280;28729;49.838;8.650;2023-05-11T04:44:17;99558.19;;;10.70;100.00
43119;BME280;28729;49.838;8.650;2023-05-11T04:48:19;99557.13;;;10.71;100.00
43119;BME280;28729;49.838;8.650;2023-05-11T04:52:23;99558.56;;;10.79;100.00
43119;BME280;28729;49.838;8.650;2023-05-11T04:56:24;99553.44;;;10.88;100.00
43119;BME280;28729;49.838;8.650;2023-05-11T05:00:27;99556.50;;;10.91;100.00
43119;BME280;28729;49.838;8.650;2023-05-11T05:04:32;99559.31;;;10.97;100.00
43119;BME280;28729;49.838;8.650;2023-05-11T05:08:36;99559.13;;;11.03;100.00
43119;BME280;28729;49.838;8.650;2023-05-11T05:12:38;99565.84;;;11.12;100.00
43119;BME280;28729;49.838;8.650;2023-05-11T05:16:40;99573.91;;;11.19;100.00
43119;BME280;28729;49.838;8.650;2023-05-11T05:20:44;99565.69;;;11.24;100.00
43119;BME280;28729;49.838;8.650;2023-05-11T05:24:45;99575.47;;;11.37;100.00
43119;BME280;28729;49.838;8.650;2023-05-11T05:28:49;99578.31;;;11.47;100.00
43119;BME280;28729;49.838;8.650;2023-05-11T05:32:53;99575.91;;;11.56;100.00
43119;BME280;28729;49.838;8.650;2023-05-11T05:36:55;99581.03;;;11.69;100.00
43119;BME280;28729;49.838;8.650;2023-05-11T05:40:58;99581.31;;;11.73;100.00
43119;BME280;28729;49.838;8.650;2023-05-11T05:45:02;99587.19;;;11.81;100.00
43119;BME280;28729;49.838;8.650;2023-05-11T05:49:04;99587.28;;;11.92;100.00
43119;BME280;28729;49.838;8.650;2023-05-11T05:53:07;99592.88;;;11.97;100.00
43119;BME280;28729;49.838;8.650;2023-05-11T05:57:10;99598.88;;;11.89;100.00
43119;BME280;28729;49.838;8.650;2023-05-11T06:01:15;99593.44;;;11.99;100.00
43119;BME280;28729;49.838;8.650;2023-05-11T06:05:17;99593.47;;;12.04;100.00
43119;BME280;28729;49.838;8.650;2023-05-11T06:09:20;99596.56;;;12.13;100.00
43119;BME280;28729;49.838;8.650;2023-05-11T06:13:21;99600.78;;;12.25;100.00
43119;BME280;28729;49.838;8.650;2023-05-11T06:17:24;99606.97;;;12.38;100.00
43119;BME280;28729;49.838;8.650;2023-05-11T06:21:26;99607.59;;;12.50;100.00
43119;BME280;28729;49.838;8.650;2023-05-11T06:25:28;99598.47;;;12.49;100.00
43119;BME280;28729;49.838;8.650;2023-05-11T06:29:29;99612.31;;;12.54;100.00
43119;BME280;28729;49.838;8.650;2023-05-11T06:33:32;99607.34;;;12.57;100.00
43119;BME280;28729;49.838;8.650;2023-05-11T06:37:34;99609.84;;;12.58;100.00
43119;BME280;28729;49.838;8.650;2023-05-11T06:41:37;99613.25;;;12.70;100.00
43119;BME280;28729;49.838;8.650;2023-05-11T06:45:39;99617.44;;;12.83;100.00
43119;BME280;28729;49.838;8.650;2023-05-11T06:49:43;99604.19;;;12.85;100.00
43119;BME280;28729;49.838;8.650;2023-05-11T06:53:47;99594.25;;;12.89;100.00
43119;BME280;28729;49.838;8.650;2023-05-11T06:57:49;99594.56;;;12.98;100.00
43119;BME280;28729;49.838;8.650;2023-05-11T07:01:51;99603.19;;;13.12;100.00
43119;BME280;28729;49.838;8.650;2023-05-11T07:05:52;99601.81;;;13.25;100.00
43119;BME280;28729;49.838;8.650;2023-05-11T07:09:56;99608.53;;;13.39;100.00
43119;BME280;28729;49.838;8.650;2023-05-11T07:13:58;99609.66;;;13.53;100.00
43119;BME280;28729;49.838;8.650;2023-05-11T07:17:59;99603.03;;;13.64;100.00
43119;BME280;28729;49.838;8.650;2023-05-11T07:22:02;99611.34;;;13.64;100.00
43119;BME280;28729;49.838;8.650;2023-05-11T07:26:04;99619.94;;;13.63;100.00
43119;BME280;28729;49.838;8.650;2023-05-11T07:30:09;99617.97;;;13.58;100.00
43119;BME280;28729;49.838;8.650;2023-05-11T07:34:11;99615.81;;;13.81;100.00
43119;BME280;28729;49.838;8.650;2023-05-11T07:38:13;99618.00;;;13.99;100.00
43119;BME280;28729;49.838;8.650;2023-05-11T07:42:15;99620.25;;;14.07;100.00
43119;BME280;28729;49.838;8.650;2023-05-11T07:46:16;99626.88;;;14.11;100.00
43119;BME280;28729;49.838;8.650;2023-05-11T07:50:20;99619.09;;;14.24;100.00
43119;BME280;28729;49.838;8.650;2023-05-11T07:54:24;99607.16;;;14.49;100.00
43119;BME280;28729;49.838;8.650;2023-05-11T07:58:26;99610.75;;;14.65;100.00
43119;BME280;28729;49.838;8.650;2023-05-11T08:02:28;99606.78;;;14.81;100.00
43119;BME280;28729;49.838;8.650;2023-05-11T08:06:31;99600.66;;;14.94;100.00
43119;BME280;28729;49.838;8.650;2023-05-11T08:10:34;99604.75;;;15.07;100.00
43119;BME280;28729;49.838;8.650;2023-05-11T08:14:36;99599.75;;;15.14;100.00
43119;BME280;28729;49.838;8.650;2023-05-11T08:18:38;99603.28;;;15.20;100.00
43119;BME280;28729;49.838;8.650;2023-05-11T08:22:40;99615.50;;;15.24;100.00
43119;BME280;28729;49.838;8.650;2023-05-11T08:26:42;99607.75;;;15.21;100.00
43119;BME280;28729;49.838;8.650;2023-05-11T08:30:44;99614.38;;;15.25;100.00
43119;BME280;28729;49.838;8.650;2023-05-11T08:34:46;99614.81;;;15.47;99.89
43119;BME280;28729;49.838;8.650;2023-05-11T08:38:48;99615.31;;;15.55;98.62
43119;BME280;28729;49.838;8.650;2023-05-11T08:42:55;99609.53;;;15.51;98.69
43119;BME280;28729;49.838;8.650;2023-05-11T08:47:00;99614.63;;;15.78;99.15
43119;BME280;28729;49.838;8.650;2023-05-11T08:51:22;99619.44;;;16.07;98.42
43119;BME280;28729;49.838;8.650;2023-05-11T08:55:29;99618.75;;;16.20;96.88
43119;BME280;28729;49.838;8.650;2023-05-11T08:59:32;99622.50;;;16.34;95.36
43119;BME280;28729;49.838;8.650;2023-05-11T09:03:35;99617.69;;;16.45;94.82
43119;BME280;28729;49.838;8.650;2023-05-11T09:07:37;99606.00;;;16.14;94.39
43119;BME280;28729;49.838;8.650;2023-05-11T09:11:43;99625.47;;;16.14;96.04
43119;BME280;28729;49.838;8.650;2023-05-11T09:15:45;99624.53;;;16.24;95.87
43119;BME280;28729;49.838;8.650;2023-05-11T09:19:57;99619.25;;;16.27;95.37
43119;BME280;28729;49.838;8.650;2023-05-11T09:24:01;99615.09;;;16.25;94.79
43119;BME280;28729;49.838;8.650;2023-05-11T09:28:03;99610.91;;;16.27;94.24
43119;BME280;28729;49.838;8.650;2023-05-11T09:32:05;99615.97;;;16.20;95.54
43119;BME280;28729;49.838;8.650;2023-05-11T09:36:07;99617.63;;;16.21;95.50
43119;BME280;28729;49.838;8.650;2023-05-11T09:40:23;99617.63;;;16.21;93.69
43119;BME280;28729;49.838;8.650;2023-05-11T09:44:34;99623.09;;;16.31;92.95
43119;BME280;28729;49.838;8.650;2023-05-11T09:48:35;99619.25;;;16.27;94.32
43119;BME280;28729;49.838;8.650;2023-05-11T09:52:48;99617.44;;;16.12;93.74
43119;BME280;28729;49.838;8.650;2023-05-11T09:56:54;99612.25;;;16.01;95.80
43119;BME280;28729;49.838;8.650;2023-05-11T10:00:58;99604.53;;;15.92;96.13
43119;BME280;28729;49.838;8.650;2023-05-11T10:05:10;99615.97;;;15.86;98.24
43119;BME280;28729;49.838;8.650;2023-05-11T10:09:14;99616.81;;;15.86;98.40
43119;BME280;28729;49.838;8.650;2023-05-11T10:13:16;99613.09;;;15.96;97.30
43119;BME280;28729;49.838;8.650;2023-05-11T10:17:19;99619.47;;;16.02;97.91
43119;BME280;28729;49.838;8.650;2023-05-11T10:21:23;99617.81;;;16.01;97.90
43119;BME280;28729;49.838;8.650;2023-05-11T10:25:25;99615.63;;;15.98;98.63
43119;BME280;28729;49.838;8.650;2023-05-11T10:29:27;99610.88;;;15.98;98.69
43119;BME280;28729;49.838;8.650;2023-05-11T10:33:31;99607.84;;;16.24;97.94
43119;BME280;28729;49.838;8.650;2023-05-11T10:37:34;99618.16;;;16.52;96.00
43119;BME280;28729;49.838;8.650;2023-05-11T10:41:39;99606.44;;;16.55;94.67
43119;BME280;28729;49.838;8.650;2023-05-11T10:46:01;99600.00;;;16.60;94.81
43119;BME280;28729;49.838;8.650;2023-05-11T10:50:17;99603.84;;;16.64;94.96
43119;BME280;28729;49.838;8.650;2023-05-11T10:54:41;99602.91;;;16.74;94.66
43119;BME280;28729;49.838;8.650;2023-05-11T11:03:11;99606.59;;;16.93;93.66
43119;BME280;28729;49.838;8.650;2023-05-11T11:07:14;99598.66;;;17.05;93.38
43119;BME280;28729;49.838;8.650;2023-05-11T11:11:40;99595.81;;;17.29;92.07
43119;BME280;28729;49.838;8.650;2023-05-11T11:19:54;99597.56;;;17.44;90.13
43119;BME280;28729;49.838;8.650;2023-05-11T11:23:57;99594.09;;;17.34;85.20
43119;BME280;28729;49.838;8.650;2023-05-11T11:28:03;99588.91;;;17.46;89.10
43119;BME280;28729;49.838;8.650;2023-05-11T11:32:24;99586.88;;;17.70;87.86
43119;BME280;28729;49.838;8.650;2023-05-11T11:37:19;99590.59;;;17.85;87.08
43119;BME280;28729;49.838;8.650;2023-05-11T11:41:27;99584.56;;;18.10;85.56
43119;BME280;28729;49.838;8.650;2023-05-11T11:45:31;99586.31;;;18.39;82.91
43119;BME280;28729;49.838;8.650;2023-05-11T11:49:34;99584.97;;;18.50;82.17
43119;BME280;28729;49.838;8.650;2023-05-11T11:57:42;99577.19;;;18.47;80.91
43119;BME280;28729;49.838;8.650;2023-05-11T12:01:51;99579.91;;;18.66;80.44
43119;BME280;28729;49.838;8.650;2023-05-11T12:05:59;99574.06;;;18.95;80.06
43119;BME280;28729;49.838;8.650;2023-05-11T12:10:02;99567.72;;;19.03;78.36
43119;BME280;28729;49.838;8.650;2023-05-11T12:14:07;99568.34;;;19.00;77.31
43119;BME280;28729;49.838;8.650;2023-05-11T12:18:29;99567.84;;;18.98;77.42
43119;BME280;28729;49.838;8.650;2023-05-11T12:22:35;99570.03;;;19.01;77.63
43119;BME280;28729;49.838;8.650;2023-05-11T12:26:36;99562.66;;;19.05;76.27
43119;BME280;28729;49.838;8.650;2023-05-11T12:30:38;99555.13;;;18.78;78.88
43119;BME280;28729;49.838;8.650;2023-05-11T12:34:41;99556.06;;;18.87;78.15
43119;BME280;28729;49.838;8.650;2023-05-11T12:38:46;99559.03;;;19.19;77.21
43119;BME280;28729;49.838;8.650;2023-05-11T12:42:56;99554.00;;;19.43;75.90
43119;BME280;28729;49.838;8.650;2023-05-11T12:46:59;99551.22;;;19.43;75.01
43119;BME280;28729;49.838;8.650;2023-05-11T12:51:03;99553.09;;;19.34;75.18
43119;BME280;28729;49.838;8.650;2023-05-11T12:55:05;99544.00;;;19.28;75.80
43119;BME280;28729;49.838;8.650;2023-05-11T12:59:26;99545.00;;;18.96;76.01
43119;BME280;28729;49.838;8.650;2023-05-11T13:03:29;99539.41;;;18.68;77.95
43119;BME280;28729;49.838;8.650;2023-05-11T13:07:32;99543.94;;;18.51;77.84
43119;BME280;28729;49.838;8.650;2023-05-11T13:11:35;99545.25;;;18.26;78.72
43119;BME280;28729;49.838;8.650;2023-05-11T13:15:50;99542.59;;;17.88;81.18
43119;BME280;28729;49.838;8.650;2023-05-11T13:19:52;99535.00;;;17.56;83.57
43119;BME280;28729;49.838;8.650;2023-05-11T13:23:55;99534.78;;;17.33;84.40
43119;BME280;28729;49.838;8.650;2023-05-11T13:27:57;99533.72;;;17.10;87.20
43119;BME280;28729;49.838;8.650;2023-05-11T13:31:59;99534.03;;;16.90;88.09
43119;BME280;28729;49.838;8.650;2023-05-11T13:36:02;99537.31;;;16.68;89.26
43119;BME280;28729;49.838;8.650;2023-05-11T13:40:05;99536.50;;;16.43;91.85
43119;BME280;28729;49.838;8.650;2023-05-11T13:44:13;99535.06;;;16.22;95.14
43119;BME280;28729;49.838;8.650;2023-05-11T13:48:15;99534.44;;;16.01;97.42
43119;BME280;28729;49.838;8.650;2023-05-11T13:52:17;99534.28;;;15.87;99.85
43119;BME280;28729;49.838;8.650;2023-05-11T13:56:18;99529.19;;;15.94;100.00
43119;BME280;28729;49.838;8.650;2023-05-11T14:00:21;99522.44;;;16.05;100.00
43119;BME280;28729;49.838;8.650;2023-05-11T14:04:23;99524.75;;;16.22;100.00
43119;BME280;28729;49.838;8.650;2023-05-11T14:08:26;99528.00;;;16.29;100.00
43119;BME280;28729;49.838;8.650;2023-05-11T14:12:29;99522.41;;;16.34;100.00
43119;BME280;28729;49.838;8.650;2023-05-11T14:16:30;99518.44;;;16.40;100.00
43119;BME280;28729;49.838;8.650;2023-05-11T14:20:35;99514.88;;;16.35;100.00
43119;BME280;28729;49.838;8.650;2023-05-11T14:24:45;99521.31;;;16.06;100.00
43119;BME280;28729;49.838;8.650;2023-05-11T14:28:46;99521.34;;;15.67;100.00
43119;BME280;28729;49.838;8.650;2023-05-11T14:32:49;99515.44;;;15.44;100.00
43119;BME280;28729;49.838;8.650;2023-05-11T14:36:53;99525.66;;;15.10;100.00
43119;BME280;28729;49.838;8.650;2023-05-11T14:40:56;99526.72;;;14.64;100.00
43119;BME280;28729;49.838;8.650;2023-05-11T14:44:59;99515.13;;;14.42;100.00
43119;BME280;28729;49.838;8.650;2023-05-11T14:49:01;99518.78;;;14.22;100.00
43119;BME280;28729;49.838;8.650;2023-05-11T14:53:03;99514.66;;;14.09;100.00
43119;BME280;28729;49.838;8.650;2023-05-11T14:57:06;99509.13;;;14.04;100.00
43119;BME280;28729;49.838;8.650;2023-05-11T15:01:09;99506.94;;;13.90;100.00
43119;BME280;28729;49.838;8.650;2023-05-11T15:05:11;99510.28;;;13.77;100.00
43119;BME280;28729;49.838;8.650;2023-05-11T15:09:15;99514.16;;;13.76;100.00
43119;BME280;28729;49.838;8.650;2023-05-11T15:13:16;99516.09;;;13.76;100.00
43119;BME280;28729;49.838;8.650;2023-05-11T15:17:21;99513.03;;;13.82;100.00
43119;BME280;28729;49.838;8.650;2023-05-11T15:21:23;99516.38;;;13.84;100.00
43119;BME280;28729;49.838;8.650;2023-05-11T15:25:25;99526.84;;;13.98;100.00
43119;BME280;28729;49.838;8.650;2023-05-11T15:29:28;99518.81;;;14.11;100.00
43119;BME280;28729;49.838;8.650;2023-05-11T15:33:30;99517.44;;;14.19;100.00
43119;BME280;28729;49.838;8.650;2023-05-11T15:37:32;99520.47;;;14.23;100.00
43119;BME280;28729;49.838;8.650;2023-05-11T15:41:35;99520.41;;;14.33;100.00
43119;BME280;28729;49.838;8.650;2023-05-11T15:45:37;99523.16;;;14.43;100.00
43119;BME280;28729;49.838;8.650;2023-05-11T15:49:39;99515.97;;;14.52;100.00
43119;BME280;28729;49.838;8.650;2023-05-11T15:53:43;99517.03;;;14.56;100.00
43119;BME280;28729;49.838;8.650;2023-05-11T15:57:46;99522.25;;;14.68;100.00
43119;BME280;28729;49.838;8.650;2023-05-11T16:01:48;99516.41;;;14.75;100.00
43119;BME280;28729;49.838;8.650;2023-05-11T16:05:51;99514.16;;;14.82;100.00
43119;BME280;28729;49.838;8.650;2023-05-11T16:09:54;99515.78;;;14.93;100.00
43119;BME280;28729;49.838;8.650;2023-05-11T16:13:57;99515.97;;;15.02;100.00
43119;BME280;28729;49.838;8.650;2023-05-11T16:17:59;99512.94;;;14.98;100.00
43119;BME280;28729;49.838;8.650;2023-05-11T16:22:06;99513.56;;;14.90;100.00
43119;BME280;28729;49.838;8.650;2023-05-11T16:26:08;99507.25;;;14.79;100.00
43119;BME280;28729;49.838;8.650;2023-05-11T16:30:10;99518.91;;;14.71;100.00
43119;BME280;28729;49.838;8.650;2023-05-11T16:34:25;99508.13;;;14.65;100.00
43119;BME280;28729;49.838;8.650;2023-05-11T16:38:27;99508.16;;;14.59;100.00
43119;BME280;28729;49.838;8.650;2023-05-11T16:42:30;99508.16;;;14.54;100.00
43119;BME280;28729;49.838;8.650;2023-05-11T16:46:32;99509.28;;;14.53;100.00
43119;BME280;28729;49.838;8.650;2023-05-11T16:50:34;99502.34;;;14.51;100.00
43119;BME280;28729;49.838;8.650;2023-05-11T16:54:39;99506.78;;;14.47;100.00
43119;BME280;28729;49.838;8.650;2023-05-11T16:58:42;99508.75;;;14.36;100.00
43119;BME280;28729;49.838;8.650;2023-05-11T17:02:44;99499.94;;;14.29;100.00
43119;BME280;28729;49.838;8.650;2023-05-11T17:06:46;99510.75;;;14.25;100.00
43119;BME280;28729;49.838;8.650;2023-05-11T17:10:49;99503.28;;;14.21;100.00
43119;BME280;28729;49.838;8.650;2023-05-11T17:14:59;99505.53;;;14.13;100.00
43119;BME280;28729;49.838;8.650;2023-05-11T17:19:01;99507.22;;;14.04;100.00
43119;BME280;28729;49.838;8.650;2023-05-11T17:23:03;99505.81;;;13.97;100.00
43119;BME280;28729;49.838;8.650;2023-05-11T17:27:05;99505.56;;;13.93;100.00
43119;BME280;28729;49.838;8.650;2023-05-11T17:31:08;99505.56;;;13.88;100.00
43119;BME280;28729;49.838;8.650;2023-05-11T17:35:10;99507.78;;;13.81;100.00
43119;BME280;28729;49.838;8.650;2023-05-11T17:39:14;99509.72;;;13.75;100.00
43119;BME280;28729;49.838;8.650;2023-05-11T17:43:18;99513.88;;;13.73;100.00
43119;BME280;28729;49.838;8.650;2023-05-11T17:47:19;99513.63;;;13.69;100.00
43119;BME280;28729;49.838;8.650;2023-05-11T17:51:21;99518.31;;;13.58;100.00
43119;BME280;28729;49.838;8.650;2023-05-11T17:55:24;99521.94;;;13.54;100.00
43119;BME280;28729;49.838;8.650;2023-05-11T17:59:26;99520.53;;;13.46;100.00
43119;BME280;28729;49.838;8.650;2023-05-11T18:03:30;99535.19;;;13.36;100.00
43119;BME280;28729;49.838;8.650;2023-05-11T18:07:36;99519.41;;;13.27;100.00
43119;BME280;28729;49.838;8.650;2023-05-11T18:11:53;99524.34;;;13.25;100.00
43119;BME280;28729;49.838;8.650;2023-05-11T18:15:55;99529.06;;;13.24;100.00
43119;BME280;28729;49.838;8.650;2023-05-11T18:20:01;99532.06;;;13.17;100.00
43119;BME280;28729;49.838;8.650;2023-05-11T18:24:09;99535.69;;;13.13;100.00
43119;BME280;28729;49.838;8.650;2023-05-11T18:28:11;99537.34;;;13.09;100.00
43119;BME280;28729;49.838;8.650;2023-05-11T18:32:12;99538.41;;;13.08;100.00
43119;BME280;28729;49.838;8.650;2023-05-11T18:36:15;99527.34;;;13.03;100.00
43119;BME280;28729;49.838;8.650;2023-05-11T18:40:17;99531.75;;;12.98;100.00
43119;BME280;28729;49.838;8.650;2023-05-11T18:44:21;99532.59;;;12.94;100.00
43119;BME280;28729;49.838;8.650;2023-05-11T18:48:27;99537.00;;;12.95;100.00
43119;BME280;28729;49.838;8.650;2023-05-11T18:52:33;99530.66;;;12.94;100.00
43119;BME280;28729;49.838;8.650;2023-05-11T19:23:32;99562.94;;;12.73;100.00
43119;BME280;28729;49.838;8.650;2023-05-11T19:42:17;99567.03;;;12.66;100.00
43119;BME280;28729;49.838;8.650;2023-05-11T19:46:32;99568.94;;;12.60;100.00
43119;BME280;28729;49.838;8.650;2023-05-11T19:50:34;99563.69;;;12.59;100.00
43119;BME280;28729;49.838;8.650;2023-05-11T19:54:36;99575.00;;;12.57;100.00
43119;BME280;28729;49.838;8.650;2023-05-11T19:58:39;99583.31;;;12.57;100.00
43119;BME280;28729;49.838;8.650;2023-05-11T20:02:43;99577.53;;;12.59;100.00
43119;BME280;28729;49.838;8.650;2023-05-11T20:06:45;99578.06;;;12.61;100.00
43119;BME280;28729;49.838;8.650;2023-05-11T20:10:47;99581.41;;;12.63;100.00
43119;BME280;28729;49.838;8.650;2023-05-11T20:14:51;99578.63;;;12.63;100.00
43119;BME280;28729;49.838;8.650;2023-05-11T20:18:53;99578.63;;;12.63;100.00
43119;BME280;28729;49.838;8.650;2023-05-11T20:22:55;99584.16;;;12.63;100.00
43119;BME280;28729;49.838;8.650;2023-05-11T20:27:00;99580.84;;;12.66;100.00
43119;BME280;28729;49.838;8.650;2023-05-11T20:31:07;99573.38;;;12.66;100.00
43119;BME280;28729;49.838;8.650;2023-05-11T20:35:10;99567.03;;;12.66;100.00
43119;BME280;28729;49.838;8.650;2023-05-11T20:39:13;99572.56;;;12.66;100.00
43119;BME280;28729;49.838;8.650;2023-05-11T20:43:15;99571.75;;;12.65;100.00
43119;BME280;28729;49.838;8.650;2023-05-11T20:47:17;99565.94;;;12.62;100.00
43119;BME280;28729;49.838;8.650;2023-05-11T20:51:20;99563.97;;;12.62;100.00
43119;BME280;28729;49.838;8.650;2023-05-11T20:55:23;99565.59;;;12.58;100.00
43119;BME280;28729;49.838;8.650;2023-05-11T20:59:27;99560.63;;;12.55;100.00
43119;BME280;28729;49.838;8.650;2023-05-11T21:03:33;99560.63;;;12.55;100.00
43119;BME280;28729;49.838;8.650;2023-05-11T21:07:38;99555.09;;;12.55;100.00
43119;BME280;28729;49.838;8.650;2023-05-11T21:11:41;99560.06;;;12.53;100.00
43119;BME280;28729;49.838;8.650;2023-05-11T21:15:43;99546.50;;;12.51;100.00
43119;BME280;28729;49.838;8.650;2023-05-11T21:19:44;99558.69;;;12.50;100.00
43119;BME280;28729;49.838;8.650;2023-05-11T21:23:47;99553.97;;;12.51;100.00
43119;BME280;28729;49.838;8.650;2023-05-11T21:27:50;99547.34;;;12.52;100.00
43119;BME280;28729;49.838;8.650;2023-05-11T21:31:56;99548.72;;;12.49;100.00
43119;BME280;28729;49.838;8.650;2023-05-11T21:35:58;99553.41;;;12.49;100.00
43119;BME280;28729;49.838;8.650;2023-05-11T21:50:33;99546.19;;;12.38;100.00
43119;BME280;28729;49.838;8.650;2023-05-11T22:06:28;99546.44;;;12.36;100.00
43119;BME280;28729;49.838;8.650;2023-05-11T22:30:19;99556.09;;;12.34;100.00
43119;BME280;28729;49.838;8.650;2023-05-11T22:34:23;99550.84;;;12.32;100.00
43119;BME280;28729;49.838;8.650;2023-05-11T22:38:30;99543.91;;;12.29;100.00
43119;BME280;28729;49.838;8.650;2023-05-11T22:42:41;99551.63;;;12.27;100.00
43119;BME280;28729;49.838;8.650;2023-05-11T22:46:44;99549.97;;;12.26;100.00
43119;BME280;28729;49.838;8.650;2023-05-11T22:50:49;99550.22;;;12.25;100.00
43119;BME280;28729;49.838;8.650;2023-05-11T22:54:58;99551.59;;;12.22;100.00
43119;BME280;28729;49.838;8.650;2023-05-11T22:59:05;99542.72;;;12.15;100.00
43119;BME280;28729;49.838;8.650;2023-05-11T23:08:29;99550.19;;;12.15;100.00
43119;BME280;28729;49.838;8.650;2023-05-11T23:12:58;99549.06;;;12.16;100.00